sensor_id;sensor_type;location;lat;lon;timestamp;P1;durP1;ratioP1;P2;durP2;ratioP2
16015;SDS011;8112;53.592;10.184;2023-11-18T00:02:00;7.30;;;6.03;;
16015;SDS011;8112;53.592;10.184;2023-11-18T00:07:02;7.60;;;5.40;;
16015;SDS011;8112;53.592;10.184;2023-11-18T00:12:05;7.13;;;5.27;;
16015;SDS011;8112;53.592;10.184;2023-11-18T00:17:09;7.77;;;5.37;;
16015;SDS011;8112;53.592;10.184;2023-11-18T00:22:12;8.13;;;5.87;;
16015;SDS011;8112;53.592;10.184;2023-11-18T00:27:14;7.37;;;5.30;;
16015;SDS011;8112;53.592;10.184;2023-11-18T00:32:17;6.73;;;4.90;;
16015;SDS011;8112;53.592;10.184;2023-11-18T00:37:19;6.83;;;5.47;;
16015;SDS011;8112;53.592;10.184;2023-11-18T00:42:20;5.40;;;4.90;;
16015;SDS011;8112;53.592;10.184;2023-11-18T00:47:23;6.80;;;5.07;;
16015;SDS011;8112;53.592;10.184;2023-11-18T00:52:25;6.27;;;5.30;;
16015;SDS011;8112;53.592;10.184;2023-11-18T00:57:27;6.57;;;5.00;;
16015;SDS011;8112;53.592;10.184;2023-11-18T01:02:30;5.57;;;4.97;;
16015;SDS011;8112;53.592;10.184;2023-11-18T01:07:32;5.80;;;4.67;;
16015;SDS011;8112;53.592;10.184;2023-11-18T01:12:34;6.27;;;5.23;;
16015;SDS011;8112;53.592;10.184;2023-11-18T01:17:37;6.23;;;5.23;;
16015;SDS011;8112;53.592;10.184;2023-11-18T01:22:39;6.87;;;4.87;;
16015;SDS011;8112;53.592;10.184;2023-11-18T01:27:43;5.33;;;4.83;;
16015;SDS011;8112;53.592;10.184;2023-11-18T01:32:55;5.03;;;4.50;;
16015;SDS011;8112;53.592;10.184;2023-11-18T01:37:57;6.43;;;4.90;;
16015;SDS011;8112;53.592;10.184;2023-11-18T01:42:58;5.40;;;4.60;;
16015;SDS011;8112;53.592;10.184;2023-11-18T01:48:02;5.53;;;4.53;;
16015;SDS011;8112;53.592;10.184;2023-11-18T01:53:04;5.87;;;4.70;;
16015;SDS011;8112;53.592;10.184;2023-11-18T01:58:07;7.77;;;5.20;;
16015;SDS011;8112;53.592;10.184;2023-11-18T02:03:12;6.00;;;4.67;;
16015;SDS011;8112;53.592;10.184;2023-11-18T02:08:14;5.23;;;4.63;;
16015;SDS011;8112;53.592;10.184;2023-11-18T02:13:19;5.57;;;4.83;;
16015;SDS011;8112;53.592;10.184;2023-11-18T02:18:29;6.10;;;4.60;;
16015;SDS011;8112;53.592;10.184;2023-11-18T02:23:31;6.87;;;5.20;;
16015;SDS011;8112;53.592;10.184;2023-11-18T02:28:34;6.47;;;5.60;;
16015;SDS011;8112;53.592;10.184;2023-11-18T02:33:40;6.20;;;5.10;;
16015;SDS011;8112;53.592;10.184;2023-11-18T02:38:49;7.03;;;5.13;;
16015;SDS011;8112;53.592;10.184;2023-11-18T02:43:53;7.93;;;5.20;;
16015;SDS011;8112;53.592;10.184;2023-11-18T02:48:58;7.50;;;5.33;;
16015;SDS011;8112;53.592;10.184;2023-11-18T02:53:59;7.97;;;5.80;;
16015;SDS011;8112;53.592;10.184;2023-11-18T02:59:02;7.20;;;5.77;;
16015;SDS011;8112;53.592;10.184;2023-11-18T03:04:05;7.40;;;6.13;;
16015;SDS011;8112;53.592;10.184;2023-11-18T03:09:07;9.47;;;6.50;;
16015;SDS011;8112;53.592;10.184;2023-11-18T03:14:12;7.97;;;6.40;;
16015;SDS011;8112;53.592;10.184;2023-11-18T03:19:13;8.87;;;6.43;;
16015;SDS011;8112;53.592;10.184;2023-11-18T03:24:16;8.13;;;6.17;;
16015;SDS011;8112;53.592;10.184;2023-11-18T03:29:19;8.60;;;6.20;;
16015;SDS011;8112;53.592;10.184;2023-11-18T03:34:20;8.10;;;5.73;;
16015;SDS011;8112;53.592;10.184;2023-11-18T03:39:23;7.43;;;5.53;;
16015;SDS011;8112;53.592;10.184;2023-11-18T03:44:26;7.77;;;5.80;;
16015;SDS011;8112;53.592;10.184;2023-11-18T03:49:29;8.23;;;5.80;;
16015;SDS011;8112;53.592;10.184;2023-11-18T03:54:31;8.67;;;6.37;;
16015;SDS011;8112;53.592;10.184;2023-11-18T03:59:34;8.30;;;6.27;;
16015;SDS011;8112;53.592;10.184;2023-11-18T04:04:36;8.80;;;6.13;;
16015;SDS011;8112;53.592;10.184;2023-11-18T04:09:38;7.83;;;6.37;;
16015;SDS011;8112;53.592;10.184;2023-11-18T04:14:42;8.77;;;6.77;;
16015;SDS011;8112;53.592;10.184;2023-11-18T04:19:44;9.23;;;6.70;;
16015;SDS011;8112;53.592;10.184;2023-11-18T04:24:47;7.60;;;6.27;;
16015;SDS011;8112;53.592;10.184;2023-11-18T04:29:50;9.80;;;7.03;;
16015;SDS011;8112;53.592;10.184;2023-11-18T04:34:51;9.03;;;6.53;;
16015;SDS011;8112;53.592;10.184;2023-11-18T04:39:53;7.77;;;6.03;;
16015;SDS011;8112;53.592;10.184;2023-11-18T04:44:57;8.47;;;6.33;;
16015;SDS011;8112;53.592;10.184;2023-11-18T04:49:59;8.53;;;6.07;;
16015;SDS011;8112;53.592;10.184;2023-11-18T04:55:01;7.27;;;6.20;;
16015;SDS011;8112;53.592;10.184;2023-11-18T05:00:05;8.33;;;6.20;;
16015;SDS011;8112;53.592;10.184;2023-11-18T05:05:12;7.80;;;5.97;;
16015;SDS011;8112;53.592;10.184;2023-11-18T05:10:14;7.23;;;5.73;;
16015;SDS011;8112;53.592;10.184;2023-11-18T05:15:17;8.60;;;5.33;;
16015;SDS011;8112;53.592;10.184;2023-11-18T05:20:19;7.17;;;5.50;;
16015;SDS011;8112;53.592;10.184;2023-11-18T05:25:21;6.77;;;5.30;;
16015;SDS011;8112;53.592;10.184;2023-11-18T05:30:26;7.60;;;5.97;;
16015;SDS011;8112;53.592;10.184;2023-11-18T05:35:27;6.17;;;4.83;;
16015;SDS011;8112;53.592;10.184;2023-11-18T05:40:29;6.50;;;5.30;;
16015;SDS011;8112;53.592;10.184;2023-11-18T05:45:32;6.67;;;5.73;;
16015;SDS011;8112;53.592;10.184;2023-11-18T05:50:54;9.10;;;5.60;;
16015;SDS011;8112;53.592;10.184;2023-11-18T05:55:55;7.37;;;5.43;;
16015;SDS011;8112;53.592;10.184;2023-11-18T06:00:58;6.57;;;5.37;;
16015;SDS011;8112;53.592;10.184;2023-11-18T06:06:03;6.17;;;5.27;;
16015;SDS011;8112;53.592;10.184;2023-11-18T06:11:06;7.60;;;6.03;;
16015;SDS011;8112;53.592;10.184;2023-11-18T06:16:15;6.63;;;5.43;;
16015;SDS011;8112;53.592;10.184;2023-11-18T06:21:20;8.27;;;6.67;;
16015;SDS011;8112;53.592;10.184;2023-11-18T06:26:24;8.40;;;6.00;;
16015;SDS011;8112;53.592;10.184;2023-11-18T06:31:28;6.93;;;5.37;;
16015;SDS011;8112;53.592;10.184;2023-11-18T06:36:33;7.50;;;5.73;;
16015;SDS011;8112;53.592;10.184;2023-11-18T06:41:35;8.63;;;6.50;;
16015;SDS011;8112;53.592;10.184;2023-11-18T06:46:41;7.93;;;6.30;;
16015;SDS011;8112;53.592;10.184;2023-11-18T06:51:43;7.47;;;5.87;;
16015;SDS011;8112;53.592;10.184;2023-11-18T06:56:44;8.30;;;6.23;;
16015;SDS011;8112;53.592;10.184;2023-11-18T07:01:47;8.43;;;6.47;;
16015;SDS011;8112;53.592;10.184;2023-11-18T07:06:49;7.63;;;5.80;;
16015;SDS011;8112;53.592;10.184;2023-11-18T07:11:51;6.70;;;5.70;;
16015;SDS011;8112;53.592;10.184;2023-11-18T07:16:54;8.50;;;6.40;;
16015;SDS011;8112;53.592;10.184;2023-11-18T07:21:56;7.23;;;6.10;;
16015;SDS011;8112;53.592;10.184;2023-11-18T07:26:58;9.77;;;6.40;;
16015;SDS011;8112;53.592;10.184;2023-11-18T07:32:01;9.60;;;7.17;;
16015;SDS011;8112;53.592;10.184;2023-11-18T07:37:05;10.47;;;7.53;;
16015;SDS011;8112;53.592;10.184;2023-11-18T07:42:08;7.00;;;5.83;;
16015;SDS011;8112;53.592;10.184;2023-11-18T07:47:14;10.57;;;7.30;;
16015;SDS011;8112;53.592;10.184;2023-11-18T07:52:16;11.90;;;6.63;;
16015;SDS011;8112;53.592;10.184;2023-11-18T07:57:18;8.50;;;6.47;;
16015;SDS011;8112;53.592;10.184;2023-11-18T08:02:21;9.43;;;6.97;;
16015;SDS011;8112;53.592;10.184;2023-11-18T08:07:23;9.60;;;7.07;;
16015;SDS011;8112;53.592;10.184;2023-11-18T08:12:25;8.83;;;6.93;;
16015;SDS011;8112;53.592;10.184;2023-11-18T08:17:28;10.17;;;7.30;;
16015;SDS011;8112;53.592;10.184;2023-11-18T08:22:30;9.03;;;7.23;;
16015;SDS011;8112;53.592;10.184;2023-11-18T08:27:32;9.67;;;7.60;;
16015;SDS011;8112;53.592;10.184;2023-11-18T08:32:35;8.80;;;6.07;;
16015;SDS011;8112;53.592;10.184;2023-11-18T08:37:38;9.77;;;7.10;;
16015;SDS011;8112;53.592;10.184;2023-11-18T08:42:41;9.73;;;7.07;;
16015;SDS011;8112;53.592;10.184;2023-11-18T08:47:49;9.90;;;7.00;;
16015;SDS011;8112;53.592;10.184;2023-11-18T08:52:53;8.13;;;6.07;;
16015;SDS011;8112;53.592;10.184;2023-11-18T08:57:57;9.37;;;6.30;;
16015;SDS011;8112;53.592;10.184;2023-11-18T09:03:00;7.77;;;5.83;;
16015;SDS011;8112;53.592;10.184;2023-11-18T09:08:05;7.23;;;5.63;;
16015;SDS011;8112;53.592;10.184;2023-11-18T09:13:07;7.13;;;5.50;;
16015;SDS011;8112;53.592;10.184;2023-11-18T09:18:10;8.73;;;5.87;;
16015;SDS011;8112;53.592;10.184;2023-11-18T09:23:12;6.10;;;4.90;;
16015;SDS011;8112;53.592;10.184;2023-11-18T09:28:15;6.23;;;4.50;;
16015;SDS011;8112;53.592;10.184;2023-11-18T09:33:20;6.80;;;5.40;;
16015;SDS011;8112;53.592;10.184;2023-11-18T09:38:33;6.10;;;4.87;;
16015;SDS011;8112;53.592;10.184;2023-11-18T09:43:36;11.53;;;5.40;;
16015;SDS011;8112;53.592;10.184;2023-11-18T09:48:47;6.53;;;4.87;;
16015;SDS011;8112;53.592;10.184;2023-11-18T09:53:53;5.90;;;4.70;;
16015;SDS011;8112;53.592;10.184;2023-11-18T09:58:57;5.43;;;4.47;;
16015;SDS011;8112;53.592;10.184;2023-11-18T10:04:08;5.17;;;4.23;;
16015;SDS011;8112;53.592;10.184;2023-11-18T10:09:11;4.60;;;3.67;;
16015;SDS011;8112;53.592;10.184;2023-11-18T10:14:28;5.17;;;3.83;;
16015;SDS011;8112;53.592;10.184;2023-11-18T10:24:56;4.33;;;3.60;;
16015;SDS011;8112;53.592;10.184;2023-11-18T10:30:01;5.63;;;3.20;;
16015;SDS011;8112;53.592;10.184;2023-11-18T10:35:06;4.13;;;2.40;;
16015;SDS011;8112;53.592;10.184;2023-11-18T10:40:11;4.10;;;2.63;;
16015;SDS011;8112;53.592;10.184;2023-11-18T10:45:23;2.47;;;2.07;;
16015;SDS011;8112;53.592;10.184;2023-11-18T10:50:28;3.53;;;2.10;;
16015;SDS011;8112;53.592;10.184;2023-11-18T10:55:35;2.13;;;1.93;;
16015;SDS011;8112;53.592;10.184;2023-11-18T11:00:47;2.20;;;2.00;;
16015;SDS011;8112;53.592;10.184;2023-11-18T11:05:52;3.60;;;2.20;;
16015;SDS011;8112;53.592;10.184;2023-11-18T11:10:55;2.73;;;2.17;;
16015;SDS011;8112;53.592;10.184;2023-11-18T11:15:58;3.17;;;2.27;;
16015;SDS011;8112;53.592;10.184;2023-11-18T11:21:06;2.77;;;2.40;;
16015;SDS011;8112;53.592;10.184;2023-11-18T11:26:18;2.17;;;1.90;;
16015;SDS011;8112;53.592;10.184;2023-11-18T11:31:31;2.20;;;1.93;;
16015;SDS011;8112;53.592;10.184;2023-11-18T11:36:41;1.63;;;1.53;;
16015;SDS011;8112;53.592;10.184;2023-11-18T11:41:50;2.37;;;1.57;;
16015;SDS011;8112;53.592;10.184;2023-11-18T11:46:54;2.70;;;1.70;;
16015;SDS011;8112;53.592;10.184;2023-11-18T11:52:02;1.73;;;1.60;;
16015;SDS011;8112;53.592;10.184;2023-11-18T11:57:08;1.87;;;1.70;;
16015;SDS011;8112;53.592;10.184;2023-11-18T12:02:14;2.13;;;1.70;;
16015;SDS011;8112;53.592;10.184;2023-11-18T12:07:18;1.70;;;1.60;;
16015;SDS011;8112;53.592;10.184;2023-11-18T12:12:23;1.80;;;1.70;;
16015;SDS011;8112;53.592;10.184;2023-11-18T12:17:26;2.33;;;2.00;;
16015;SDS011;8112;53.592;10.184;2023-11-18T12:28:17;3.47;;;2.90;;
16015;SDS011;8112;53.592;10.184;2023-11-18T12:33:21;3.10;;;2.80;;
16015;SDS011;8112;53.592;10.184;2023-11-18T12:38:36;2.97;;;2.57;;
16015;SDS011;8112;53.592;10.184;2023-11-18T12:44:02;2.87;;;2.43;;
16015;SDS011;8112;53.592;10.184;2023-11-18T12:49:18;2.60;;;2.33;;
16015;SDS011;8112;53.592;10.184;2023-11-18T12:54:25;2.60;;;2.40;;
16015;SDS011;8112;53.592;10.184;2023-11-18T12:59:28;4.83;;;2.87;;
16015;SDS011;8112;53.592;10.184;2023-11-18T13:04:30;3.13;;;2.30;;
16015;SDS011;8112;53.592;10.184;2023-11-18T13:09:35;2.57;;;2.37;;
16015;SDS011;8112;53.592;10.184;2023-11-18T13:14:38;2.70;;;2.37;;
16015;SDS011;8112;53.592;10.184;2023-11-18T13:19:42;2.47;;;2.13;;
16015;SDS011;8112;53.592;10.184;2023-11-18T13:24:46;2.90;;;2.47;;
16015;SDS011;8112;53.592;10.184;2023-11-18T13:29:50;5.00;;;2.50;;
16015;SDS011;8112;53.592;10.184;2023-11-18T13:34:53;4.13;;;2.50;;
16015;SDS011;8112;53.592;10.184;2023-11-18T13:39:56;2.83;;;2.50;;
16015;SDS011;8112;53.592;10.184;2023-11-18T13:45:00;3.10;;;2.40;;
16015;SDS011;8112;53.592;10.184;2023-11-18T13:50:07;2.53;;;2.33;;
16015;SDS011;8112;53.592;10.184;2023-11-18T13:55:11;2.73;;;2.40;;
16015;SDS011;8112;53.592;10.184;2023-11-18T14:00:17;3.53;;;2.90;;
16015;SDS011;8112;53.592;10.184;2023-11-18T14:05:23;3.10;;;2.50;;
16015;SDS011;8112;53.592;10.184;2023-11-18T14:10:26;3.50;;;3.20;;
16015;SDS011;8112;53.592;10.184;2023-11-18T14:15:28;4.03;;;2.90;;
16015;SDS011;8112;53.592;10.184;2023-11-18T14:20:31;4.33;;;3.20;;
16015;SDS011;8112;53.592;10.184;2023-11-18T14:25:34;3.80;;;3.30;;
16015;SDS011;8112;53.592;10.184;2023-11-18T14:30:36;3.80;;;2.93;;
16015;SDS011;8112;53.592;10.184;2023-11-18T14:35:38;3.40;;;2.60;;
16015;SDS011;8112;53.592;10.184;2023-11-18T14:40:41;3.57;;;2.87;;
16015;SDS011;8112;53.592;10.184;2023-11-18T14:45:43;4.60;;;2.70;;
16015;SDS011;8112;53.592;10.184;2023-11-18T14:50:45;2.80;;;2.50;;
16015;SDS011;8112;53.592;10.184;2023-11-18T14:55:48;3.70;;;2.90;;
16015;SDS011;8112;53.592;10.184;2023-11-18T15:00:50;3.90;;;2.80;;
16015;SDS011;8112;53.592;10.184;2023-11-18T15:05:52;3.40;;;2.93;;
16015;SDS011;8112;53.592;10.184;2023-11-18T15:10:56;3.27;;;2.90;;
16015;SDS011;8112;53.592;10.184;2023-11-18T15:15:58;3.20;;;2.90;;
16015;SDS011;8112;53.592;10.184;2023-11-18T15:21:00;3.83;;;3.13;;
16015;SDS011;8112;53.592;10.184;2023-11-18T15:26:03;3.20;;;2.90;;
16015;SDS011;8112;53.592;10.184;2023-11-18T15:31:07;6.20;;;3.60;;
16015;SDS011;8112;53.592;10.184;2023-11-18T15:36:11;3.33;;;2.93;;
16015;SDS011;8112;53.592;10.184;2023-11-18T15:41:16;4.13;;;3.67;;
16015;SDS011;8112;53.592;10.184;2023-11-18T15:46:17;3.57;;;3.07;;
16015;SDS011;8112;53.592;10.184;2023-11-18T15:51:19;4.20;;;3.33;;
16015;SDS011;8112;53.592;10.184;2023-11-18T15:56:23;4.50;;;3.50;;
16015;SDS011;8112;53.592;10.184;2023-11-18T16:01:25;3.90;;;3.50;;
16015;SDS011;8112;53.592;10.184;2023-11-18T16:06:27;4.13;;;3.70;;
16015;SDS011;8112;53.592;10.184;2023-11-18T16:11:31;3.07;;;2.77;;
16015;SDS011;8112;53.592;10.184;2023-11-18T16:16:32;4.20;;;3.60;;
16015;SDS011;8112;53.592;10.184;2023-11-18T16:21:36;3.20;;;2.90;;
16015;SDS011;8112;53.592;10.184;2023-11-18T16:26:40;5.50;;;3.10;;
16015;SDS011;8112;53.592;10.184;2023-11-18T16:31:41;3.13;;;2.83;;
16015;SDS011;8112;53.592;10.184;2023-11-18T16:36:43;6.93;;;5.27;;
16015;SDS011;8112;53.592;10.184;2023-11-18T16:41:46;6.57;;;4.10;;
16015;SDS011;8112;53.592;10.184;2023-11-18T16:46:47;4.57;;;3.67;;
16015;SDS011;8112;53.592;10.184;2023-11-18T16:51:50;4.20;;;3.77;;
16015;SDS011;8112;53.592;10.184;2023-11-18T16:56:55;4.83;;;4.07;;
16015;SDS011;8112;53.592;10.184;2023-11-18T17:01:57;5.73;;;4.70;;
16015;SDS011;8112;53.592;10.184;2023-11-18T17:06:58;5.40;;;4.17;;
16015;SDS011;8112;53.592;10.184;2023-11-18T17:12:02;4.60;;;3.73;;
16015;SDS011;8112;53.592;10.184;2023-11-18T17:17:03;5.80;;;4.20;;
16015;SDS011;8112;53.592;10.184;2023-11-18T17:22:08;4.43;;;4.03;;
16015;SDS011;8112;53.592;10.184;2023-11-18T17:27:12;5.37;;;4.77;;
16015;SDS011;8112;53.592;10.184;2023-11-18T17:32:13;5.07;;;4.03;;
16015;SDS011;8112;53.592;10.184;2023-11-18T17:37:15;8.00;;;5.03;;
16015;SDS011;8112;53.592;10.184;2023-11-18T17:42:18;8.60;;;5.20;;
16015;SDS011;8112;53.592;10.184;2023-11-18T17:47:20;7.50;;;5.40;;
16015;SDS011;8112;53.592;10.184;2023-11-18T17:52:22;7.60;;;5.27;;
16015;SDS011;8112;53.592;10.184;2023-11-18T17:57:25;8.67;;;6.33;;
16015;SDS011;8112;53.592;10.184;2023-11-18T18:02:27;9.43;;;7.30;;
16015;SDS011;8112;53.592;10.184;2023-11-18T18:07:29;9.00;;;6.30;;
16015;SDS011;8112;53.592;10.184;2023-11-18T18:12:32;10.33;;;7.40;;
16015;SDS011;8112;53.592;10.184;2023-11-18T18:17:34;9.87;;;7.77;;
16015;SDS011;8112;53.592;10.184;2023-11-18T18:22:37;14.07;;;8.80;;
16015;SDS011;8112;53.592;10.184;2023-11-18T18:27:41;10.67;;;7.50;;
16015;SDS011;8112;53.592;10.184;2023-11-18T18:32:43;11.70;;;8.20;;
16015;SDS011;8112;53.592;10.184;2023-11-18T18:37:46;14.10;;;9.40;;
16015;SDS011;8112;53.592;10.184;2023-11-18T18:42:50;13.17;;;8.97;;
16015;SDS011;8112;53.592;10.184;2023-11-18T18:47:51;12.90;;;8.90;;
16015;SDS011;8112;53.592;10.184;2023-11-18T18:52:55;13.70;;;9.80;;
16015;SDS011;8112;53.592;10.184;2023-11-18T18:57:58;12.50;;;9.53;;
16015;SDS011;8112;53.592;10.184;2023-11-18T19:03:00;12.23;;;8.93;;
16015;SDS011;8112;53.592;10.184;2023-11-18T19:08:01;12.90;;;9.07;;
16015;SDS011;8112;53.592;10.184;2023-11-18T19:13:04;12.60;;;8.97;;
16015;SDS011;8112;53.592;10.184;2023-11-18T19:18:08;13.33;;;9.23;;
16015;SDS011;8112;53.592;10.184;2023-11-18T19:23:09;12.87;;;8.90;;
16015;SDS011;8112;53.592;10.184;2023-11-18T19:28:13;12.87;;;9.80;;
16015;SDS011;8112;53.592;10.184;2023-11-18T19:33:15;14.60;;;9.80;;
16015;SDS011;8112;53.592;10.184;2023-11-18T19:38:17;15.67;;;9.90;;
16015;SDS011;8112;53.592;10.184;2023-11-18T19:43:23;14.87;;;9.60;;
16015;SDS011;8112;53.592;10.184;2023-11-18T19:48:25;12.20;;;9.07;;
16015;SDS011;8112;53.592;10.184;2023-11-18T19:53:30;13.90;;;9.80;;
16015;SDS011;8112;53.592;10.184;2023-11-18T19:58:33;13.13;;;9.40;;
16015;SDS011;8112;53.592;10.184;2023-11-18T20:03:36;12.40;;;9.27;;
16015;SDS011;8112;53.592;10.184;2023-11-18T20:08:40;14.30;;;10.03;;
16015;SDS011;8112;53.592;10.184;2023-11-18T20:13:43;14.10;;;10.30;;
16015;SDS011;8112;53.592;10.184;2023-11-18T20:18:45;14.07;;;9.73;;
16015;SDS011;8112;53.592;10.184;2023-11-18T20:23:46;14.47;;;10.23;;
16015;SDS011;8112;53.592;10.184;2023-11-18T20:28:50;14.93;;;10.13;;
16015;SDS011;8112;53.592;10.184;2023-11-18T20:33:52;13.73;;;9.73;;
16015;SDS011;8112;53.592;10.184;2023-11-18T20:38:53;17.83;;;10.30;;
16015;SDS011;8112;53.592;10.184;2023-11-18T20:43:58;14.20;;;10.00;;
16015;SDS011;8112;53.592;10.184;2023-11-18T20:49:00;13.77;;;8.97;;
16015;SDS011;8112;53.592;10.184;2023-11-18T20:54:01;12.90;;;9.10;;
16015;SDS011;8112;53.592;10.184;2023-11-18T20:59:06;14.03;;;9.67;;
16015;SDS011;8112;53.592;10.184;2023-11-18T21:04:07;13.53;;;10.37;;
16015;SDS011;8112;53.592;10.184;2023-11-18T21:09:09;11.50;;;8.70;;
16015;SDS011;8112;53.592;10.184;2023-11-18T21:14:12;12.00;;;8.93;;
16015;SDS011;8112;53.592;10.184;2023-11-18T21:19:14;13.33;;;9.30;;
16015;SDS011;8112;53.592;10.184;2023-11-18T21:24:16;14.37;;;9.67;;
16015;SDS011;8112;53.592;10.184;2023-11-18T21:29:19;14.70;;;9.67;;
16015;SDS011;8112;53.592;10.184;2023-11-18T21:34:21;13.07;;;9.50;;
16015;SDS011;8112;53.592;10.184;2023-11-18T21:39:23;14.10;;;9.63;;
16015;SDS011;8112;53.592;10.184;2023-11-18T21:44:27;13.27;;;9.63;;
16015;SDS011;8112;53.592;10.184;2023-11-18T21:49:29;12.37;;;9.23;;
16015;SDS011;8112;53.592;10.184;2023-11-18T21:54:31;12.03;;;8.80;;
16015;SDS011;8112;53.592;10.184;2023-11-18T21:59:37;12.20;;;8.57;;
16015;SDS011;8112;53.592;10.184;2023-11-18T22:04:39;13.63;;;9.40;;
16015;SDS011;8112;53.592;10.184;2023-11-18T22:09:40;13.97;;;9.70;;
16015;SDS011;8112;53.592;10.184;2023-11-18T22:14:44;13.70;;;9.33;;
16015;SDS011;8112;53.592;10.184;2023-11-18T22:19:45;12.70;;;9.20;;
16015;SDS011;8112;53.592;10.184;2023-11-18T22:24:49;13.97;;;9.27;;
16015;SDS011;8112;53.592;10.184;2023-11-18T22:29:53;14.57;;;9.63;;
16015;SDS011;8112;53.592;10.184;2023-11-18T22:34:55;13.60;;;9.20;;
16015;SDS011;8112;53.592;10.184;2023-11-18T22:39:56;12.13;;;9.30;;
16015;SDS011;8112;53.592;10.184;2023-11-18T22:45:00;11.90;;;9.00;;
16015;SDS011;8112;53.592;10.184;2023-11-18T22:50:02;13.37;;;9.43;;
16015;SDS011;8112;53.592;10.184;2023-11-18T22:55:05;15.27;;;9.87;;
16015;SDS011;8112;53.592;10.184;2023-11-18T23:00:09;11.47;;;8.63;;
16015;SDS011;8112;53.592;10.184;2023-11-18T23:05:15;11.43;;;8.47;;
16015;SDS011;8112;53.592;10.184;2023-11-18T23:10:17;12.07;;;8.27;;
16015;SDS011;8112;53.592;10.184;2023-11-18T23:15:20;9.53;;;7.93;;
16015;SDS011;8112;53.592;10.184;2023-11-18T23:20:24;9.77;;;7.33;;
16015;SDS011;8112;53.592;10.184;2023-11-18T23:25:25;10.70;;;7.50;;
16015;SDS011;8112;53.592;10.184;2023-11-18T23:30:30;9.33;;;6.40;;
16015;SDS011;8112;53.592;10.184;2023-11-18T23:35:31;10.07;;;7.03;;
16015;SDS011;8112;53.592;10.184;2023-11-18T23:40:33;9.57;;;6.70;;
16015;SDS011;8112;53.592;10.184;2023-11-18T23:45:36;7.27;;;6.03;;
16015;SDS011;8112;53.592;10.184;2023-11-18T23:50:38;8.33;;;6.30;;
16015;SDS011;8112;53.592;10.184;2023-11-18T23:55:40;8.03;;;5.90;;
